createdAt,value
2022-10-30T00:00:08.680Z,13.71
2022-10-30T00:01:09.011Z,13.67
2022-10-30T00:02:08.695Z,13.57
2022-10-30T00:03:09.524Z,13.54
2022-10-30T00:04:08.574Z,13.53
2022-10-30T00:05:08.662Z,13.44
2022-10-30T00:06:08.559Z,13.44
2022-10-30T00:07:08.520Z,13.42
2022-10-30T00:08:08.454Z,13.44
2022-10-30T00:09:08.396Z,13.46
2022-10-30T00:10:08.360Z,13.33
2022-10-30T00:11:08.342Z,13.28
2022-10-30T00:12:08.339Z,13.31
2022-10-30T00:13:08.339Z,13.31
2022-10-30T00:14:08.258Z,13.23
2022-10-30T00:15:08.228Z,13.28
2022-10-30T00:16:08.173Z,13.18
2022-10-30T00:17:08.138Z,13.31
2022-10-30T00:18:08.124Z,13.28
2022-10-30T00:19:08.141Z,13.22
2022-10-30T00:20:08.041Z,13.25
2022-10-30T00:21:08.053Z,13.22
2022-10-30T00:22:08.000Z,13.20
2022-10-30T00:23:07.953Z,13.12
2022-10-30T00:24:07.985Z,13.12
2022-10-30T00:25:07.905Z,13.16
2022-10-30T00:26:07.856Z,13.28
2022-10-30T00:27:07.834Z,13.19
2022-10-30T00:28:07.793Z,13.22
2022-10-30T00:29:07.838Z,13.25
2022-10-30T00:30:07.800Z,13.25
2022-10-30T00:31:07.714Z,13.25
2022-10-30T00:32:07.674Z,13.30
2022-10-30T00:33:07.652Z,13.22
2022-10-30T00:34:07.703Z,13.23
2022-10-30T00:35:07.579Z,13.22
2022-10-30T00:36:07.543Z,13.18
2022-10-30T00:37:07.511Z,13.16
2022-10-30T00:38:07.474Z,13.13
2022-10-30T00:39:07.454Z,13.20
2022-10-30T00:40:07.505Z,13.13
2022-10-30T00:41:07.400Z,13.16
2022-10-30T00:42:07.367Z,13.12
2022-10-30T00:43:07.340Z,13.16
2022-10-30T00:44:07.294Z,13.22
2022-10-30T00:45:07.273Z,13.23
2022-10-30T00:46:07.320Z,13.16
2022-10-30T00:47:07.235Z,13.18
2022-10-30T00:48:07.159Z,13.09
2022-10-30T00:49:07.154Z,13.09
2022-10-30T00:50:07.097Z,13.09
2022-10-30T00:51:07.079Z,13.08
2022-10-30T00:52:07.129Z,13.03
2022-10-30T00:53:07.013Z,13.05
2022-10-30T00:54:06.985Z,13.01
2022-10-30T00:55:06.942Z,12.98
2022-10-30T00:56:06.935Z,13.03
2022-10-30T00:57:06.873Z,12.95
2022-10-30T00:58:06.900Z,12.94
2022-10-30T00:59:06.886Z,12.94
2022-10-30T01:00:06.795Z,12.93
2022-10-30T01:01:06.844Z,12.87
2022-10-30T01:02:06.844Z,12.93
2022-10-30T01:03:06.688Z,12.91
2022-10-30T01:04:06.646Z,12.91
2022-10-30T01:05:06.766Z,12.91
2022-10-30T01:06:06.603Z,12.90
2022-10-30T01:07:06.553Z,12.94
2022-10-30T01:08:06.529Z,12.95
2022-10-30T01:09:06.617Z,12.87
2022-10-30T01:10:06.463Z,12.86
2022-10-30T01:11:06.447Z,12.82
2022-10-30T01:12:06.409Z,12.79
2022-10-30T01:13:06.364Z,12.78
2022-10-30T01:14:06.349Z,12.75
2022-10-30T01:15:06.366Z,12.68
2022-10-30T01:16:06.284Z,12.70
2022-10-30T01:17:06.254Z,12.76
2022-10-30T01:18:06.209Z,12.79
2022-10-30T01:19:06.270Z,12.70
2022-10-30T01:20:06.185Z,12.70
2022-10-30T01:21:06.112Z,12.76
2022-10-30T01:22:06.181Z,12.73
2022-10-30T01:23:06.040Z,12.76
2022-10-30T01:24:06.130Z,12.85
2022-10-30T01:25:05.978Z,12.82
2022-10-30T01:26:06.287Z,12.68
2022-10-30T01:27:05.939Z,12.67
2022-10-30T01:28:05.902Z,12.78
2022-10-30T01:29:05.877Z,12.85
2022-10-30T01:30:05.840Z,12.75
2022-10-30T01:31:05.792Z,12.72
2022-10-30T01:32:05.917Z,12.79
2022-10-30T01:33:05.742Z,12.80
2022-10-30T01:34:05.703Z,12.80
2022-10-30T01:35:05.683Z,12.68
2022-10-30T01:36:05.647Z,12.68
2022-10-30T01:37:05.600Z,12.61
2022-10-30T01:38:05.654Z,12.50
2022-10-30T01:39:05.544Z,12.64
2022-10-30T01:40:05.505Z,12.53
2022-10-30T01:41:05.479Z,12.53
2022-10-30T01:42:05.463Z,12.50
2022-10-30T01:43:05.410Z,12.46
2022-10-30T01:44:05.452Z,12.47
2022-10-30T01:45:05.352Z,12.49
2022-10-30T01:46:05.320Z,12.46
2022-10-30T01:47:05.349Z,12.57
2022-10-30T01:48:05.321Z,12.47
2022-10-30T01:49:05.213Z,12.54
2022-10-30T01:50:05.199Z,12.54
2022-10-30T01:51:05.231Z,12.70
2022-10-30T01:52:05.255Z,12.76
2022-10-30T01:53:05.088Z,12.95
2022-10-30T01:54:05.071Z,12.93
2022-10-30T01:55:05.048Z,12.95
2022-10-30T01:56:04.994Z,13.19
2022-10-30T01:57:05.039Z,13.15
2022-10-30T01:58:04.925Z,13.22
2022-10-30T01:59:04.888Z,13.16
2022-10-30T02:00:04.895Z,13.25
2022-10-30T02:01:05.001Z,13.11
2022-10-30T02:02:04.925Z,13.20
2022-10-30T02:03:04.832Z,13.20
2022-10-30T02:04:04.814Z,13.30
2022-10-30T02:05:04.716Z,13.28
2022-10-30T02:06:04.672Z,13.16
2022-10-30T02:07:04.648Z,13.27
2022-10-30T02:08:04.705Z,13.19
2022-10-30T02:09:04.570Z,13.28
2022-10-30T02:10:04.548Z,13.20
2022-10-30T02:11:04.504Z,13.13
2022-10-30T02:12:04.474Z,13.27
2022-10-30T02:13:04.519Z,13.23
2022-10-30T02:14:04.493Z,13.12
2022-10-30T02:15:04.380Z,13.13
2022-10-30T02:16:04.408Z,13.25
2022-10-30T02:17:04.319Z,13.11
2022-10-30T02:18:04.296Z,13.20
2022-10-30T02:19:04.346Z,13.22
2022-10-30T02:20:04.219Z,13.28
2022-10-30T02:21:04.200Z,13.30
2022-10-30T02:22:04.258Z,13.27
2022-10-30T02:23:04.346Z,13.13
2022-10-30T02:24:04.175Z,13.20
2022-10-30T02:25:04.085Z,13.05
2022-10-30T02:26:04.050Z,13.08
2022-10-30T02:27:04.023Z,13.03
2022-10-30T02:28:03.967Z,13.03
2022-10-30T02:29:03.970Z,13.03
2022-10-30T02:30:03.965Z,13.03
2022-10-30T02:31:03.874Z,13.15
2022-10-30T02:32:03.835Z,13.11
2022-10-30T02:33:03.938Z,13.20
2022-10-30T02:34:03.847Z,13.19
2022-10-30T02:35:03.759Z,13.25
2022-10-30T02:36:03.725Z,13.28
2022-10-30T02:37:03.702Z,13.30
2022-10-30T02:38:03.650Z,13.27
2022-10-30T02:39:03.649Z,13.23
2022-10-30T02:40:04.027Z,13.23
2022-10-30T02:41:03.561Z,13.27
2022-10-30T02:42:03.555Z,13.22
2022-10-30T02:43:03.496Z,13.31
2022-10-30T02:44:03.453Z,13.20
2022-10-30T02:45:03.565Z,13.16
2022-10-30T02:46:03.418Z,13.25
2022-10-30T02:47:03.358Z,13.19
2022-10-30T02:48:03.711Z,13.12
2022-10-30T02:49:03.959Z,13.22
2022-10-30T02:50:03.299Z,13.16
2022-10-30T02:51:03.309Z,13.20
2022-10-30T02:52:03.200Z,13.20
2022-10-30T02:53:03.212Z,13.23
2022-10-30T02:54:03.154Z,13.25
2022-10-30T02:55:06.338Z,13.20
2022-10-30T02:56:03.079Z,13.18
2022-10-30T02:57:03.122Z,13.33
2022-10-30T02:58:03.011Z,13.30
2022-10-30T02:59:03.002Z,13.33
2022-10-30T03:00:02.943Z,13.35
2022-10-30T03:01:03.046Z,13.46
2022-10-30T03:02:03.022Z,13.47
2022-10-30T03:03:02.941Z,13.44
2022-10-30T03:04:02.825Z,13.44
2022-10-30T03:05:02.809Z,13.44
2022-10-30T03:06:02.761Z,13.47
2022-10-30T03:07:02.732Z,13.50
2022-10-30T03:08:02.782Z,13.62
2022-10-30T03:09:02.929Z,13.54
2022-10-30T03:10:02.628Z,13.60
2022-10-30T03:11:02.641Z,13.56
2022-10-30T03:12:02.568Z,13.57
2022-10-30T03:13:02.526Z,13.60
2022-10-30T03:14:02.515Z,13.54
2022-10-30T03:15:02.520Z,13.60
2022-10-30T03:16:02.498Z,13.57
2022-10-30T03:17:02.415Z,13.53
2022-10-30T03:18:02.391Z,13.57
2022-10-30T03:19:02.343Z,13.52
2022-10-30T03:20:02.349Z,13.50
2022-10-30T03:21:02.292Z,13.54
2022-10-30T03:22:02.314Z,13.47
2022-10-30T03:23:02.289Z,13.50
2022-10-30T03:24:02.185Z,13.47
2022-10-30T03:25:02.161Z,13.46
2022-10-30T03:26:02.143Z,13.30
2022-10-30T03:27:02.127Z,13.33
2022-10-30T03:28:02.191Z,13.37
2022-10-30T03:29:02.245Z,13.18
2022-10-30T03:30:02.005Z,13.22
2022-10-30T03:31:02.019Z,13.18
2022-10-30T03:32:01.938Z,13.16
2022-10-30T03:33:01.925Z,13.18
2022-10-30T03:34:01.883Z,13.25
2022-10-30T03:35:01.893Z,13.18
2022-10-30T03:36:01.813Z,13.12
2022-10-30T03:37:01.787Z,13.23
2022-10-30T03:38:01.752Z,13.27
2022-10-30T03:39:01.760Z,13.27
2022-10-30T03:40:01.752Z,13.12
2022-10-30T03:41:01.682Z,13.19
2022-10-30T03:42:01.611Z,13.12
2022-10-30T03:43:01.614Z,13.19
2022-10-30T03:44:01.560Z,13.22
2022-10-30T03:45:01.591Z,13.20
2022-10-30T03:46:01.488Z,13.28
2022-10-30T03:47:01.508Z,13.35
2022-10-30T03:48:01.586Z,13.31
2022-10-30T03:49:01.395Z,13.33
2022-10-30T03:50:01.360Z,13.20
2022-10-30T03:51:01.400Z,13.27
2022-10-30T03:52:01.303Z,13.22
2022-10-30T03:53:01.330Z,13.37
2022-10-30T03:54:01.245Z,13.37
2022-10-30T03:55:01.226Z,13.22
2022-10-30T03:56:01.210Z,13.35
2022-10-30T03:57:01.134Z,13.46
2022-10-30T03:58:01.256Z,13.52
2022-10-30T03:59:01.160Z,13.53
2022-10-30T04:00:01.077Z,13.65
2022-10-30T04:01:01.070Z,13.77
2022-10-30T04:02:01.176Z,13.68
2022-10-30T04:03:01.286Z,13.72
2022-10-30T04:04:00.909Z,13.67
2022-10-30T04:05:01.006Z,13.68
2022-10-30T04:06:01.874Z,13.59
2022-10-30T04:07:00.813Z,13.57
2022-10-30T04:08:00.793Z,13.56
2022-10-30T04:09:00.757Z,13.62
2022-10-30T04:10:00.724Z,13.59
2022-10-30T04:11:00.807Z,13.56
2022-10-30T04:12:00.676Z,13.57
2022-10-30T04:13:00.903Z,13.60
2022-10-30T04:14:00.599Z,13.47
2022-10-30T04:15:00.579Z,13.54
2022-10-30T04:16:00.579Z,13.44
2022-10-30T04:17:00.590Z,13.52
2022-10-30T04:18:00.819Z,13.59
2022-10-30T04:19:00.514Z,13.50
2022-10-30T04:20:00.425Z,13.50
2022-10-30T04:21:00.393Z,13.50
2022-10-30T04:22:00.406Z,13.60
2022-10-30T04:23:00.357Z,13.62
2022-10-30T04:24:00.447Z,13.60
2022-10-30T04:25:00.258Z,13.62
2022-10-30T04:26:00.219Z,13.65
2022-10-30T04:27:00.199Z,13.74
2022-10-30T04:28:00.749Z,13.74
2022-10-30T04:29:00.125Z,13.77
2022-10-30T04:30:00.167Z,13.77
2022-10-30T04:31:00.093Z,13.72
2022-10-30T04:32:00.076Z,13.74
2022-10-30T04:33:00.392Z,13.63
2022-10-30T04:33:59.974Z,13.68
2022-10-30T04:34:59.934Z,13.72
2022-10-30T04:36:00.581Z,13.62
2022-10-30T04:36:59.885Z,13.70
2022-10-30T04:37:59.838Z,13.68
2022-10-30T04:38:59.832Z,13.70
2022-10-30T04:39:59.788Z,13.77
2022-10-30T04:40:59.741Z,13.68
2022-10-30T04:41:59.807Z,13.74
2022-10-30T04:43:00.138Z,13.63
2022-10-30T04:43:59.648Z,13.72
2022-10-30T04:44:59.757Z,13.79
2022-10-30T04:45:59.599Z,13.72
2022-10-30T04:46:59.557Z,13.77
2022-10-30T04:47:59.773Z,13.75
2022-10-30T04:48:59.487Z,13.68
2022-10-30T04:49:59.477Z,13.83
2022-10-30T04:50:59.489Z,13.75
2022-10-30T04:51:59.405Z,13.89
2022-10-30T04:52:59.373Z,13.86
2022-10-30T04:53:59.379Z,13.83
2022-10-30T04:54:59.344Z,13.89
2022-10-30T04:55:59.331Z,13.86
2022-10-30T04:56:59.238Z,13.78
2022-10-30T04:57:59.519Z,13.72
2022-10-30T04:58:59.174Z,13.68
2022-10-30T04:59:59.181Z,13.74
2022-10-30T05:01:02.144Z,13.72
2022-10-30T05:01:59.166Z,13.70
2022-10-30T05:02:59.082Z,13.81
2022-10-30T05:03:59.107Z,13.85
2022-10-30T05:04:58.983Z,13.86
2022-10-30T05:05:58.968Z,13.77
2022-10-30T05:06:59.256Z,13.83
2022-10-30T05:07:59.250Z,13.79
2022-10-30T05:08:58.888Z,13.83
2022-10-30T05:09:58.845Z,13.78
2022-10-30T05:10:58.801Z,13.87
2022-10-30T05:12:00.061Z,13.72
2022-10-30T05:12:58.810Z,13.85
2022-10-30T05:13:58.706Z,13.72
2022-10-30T05:14:58.683Z,13.81
2022-10-30T05:15:58.642Z,13.75
2022-10-30T05:16:58.616Z,13.74
2022-10-30T05:17:58.758Z,13.77
2022-10-30T05:18:58.641Z,13.86
2022-10-30T05:19:58.515Z,13.87
2022-10-30T05:20:58.508Z,13.81
2022-10-30T05:21:58.478Z,13.75
2022-10-30T05:22:58.523Z,13.78
2022-10-30T05:23:58.395Z,13.79
2022-10-30T05:24:58.443Z,13.79
2022-10-30T05:25:58.345Z,13.78
2022-10-30T05:26:58.321Z,13.75
2022-10-30T05:27:58.713Z,13.74
2022-10-30T05:28:58.235Z,13.70
2022-10-30T05:29:58.243Z,13.72
2022-10-30T05:30:58.252Z,13.71
2022-10-30T05:31:58.136Z,13.71
2022-10-30T05:32:58.527Z,13.70
2022-10-30T05:33:59.605Z,13.65
2022-10-30T05:34:58.090Z,13.68
2022-10-30T05:35:58.014Z,13.70
2022-10-30T05:36:58.009Z,13.59
2022-10-30T05:37:57.975Z,13.63
2022-10-30T05:38:58.007Z,13.68
2022-10-30T05:39:57.900Z,13.60
2022-10-30T05:40:57.858Z,13.70
2022-10-30T05:41:57.827Z,13.72
2022-10-30T05:42:58.086Z,13.67
2022-10-30T05:43:57.799Z,13.68
2022-10-30T05:45:02.191Z,13.74
2022-10-30T05:45:58.516Z,13.72
2022-10-30T05:46:57.854Z,13.71
2022-10-30T05:47:58.014Z,13.68
2022-10-30T05:48:57.632Z,13.71
2022-10-30T05:49:57.606Z,13.71
2022-10-30T05:50:57.618Z,13.70
2022-10-30T05:51:57.517Z,13.67
2022-10-30T05:52:57.479Z,13.65
2022-10-30T05:53:57.458Z,13.65
2022-10-30T05:54:57.455Z,13.62
2022-10-30T05:55:57.394Z,13.60
2022-10-30T05:56:57.431Z,13.54
2022-10-30T05:57:57.620Z,13.52
2022-10-30T05:58:57.301Z,13.50
2022-10-30T05:59:57.345Z,13.53
2022-10-30T06:00:57.231Z,13.54
2022-10-30T06:01:57.242Z,13.53
2022-10-30T06:02:57.555Z,13.42
2022-10-30T06:03:57.142Z,13.47
2022-10-30T06:04:57.114Z,13.42
2022-10-30T06:05:57.139Z,13.42
2022-10-30T06:06:57.038Z,13.41
2022-10-30T06:07:57.016Z,13.39
2022-10-30T06:08:56.977Z,13.38
2022-10-30T06:09:57.033Z,13.35
2022-10-30T06:10:56.928Z,13.31
2022-10-30T06:11:56.912Z,13.27
2022-10-30T06:12:57.316Z,13.31
2022-10-30T06:13:56.825Z,13.35
2022-10-30T06:14:56.793Z,13.38
2022-10-30T06:15:56.829Z,13.31
2022-10-30T06:16:56.753Z,13.30
2022-10-30T06:17:56.978Z,13.31
2022-10-30T06:18:56.684Z,13.31
2022-10-30T06:19:56.651Z,13.27
2022-10-30T06:20:56.662Z,13.31
2022-10-30T06:21:56.577Z,13.25
2022-10-30T06:22:56.589Z,13.31
2022-10-30T06:23:56.503Z,13.37
2022-10-30T06:24:57.391Z,13.38
2022-10-30T06:25:56.526Z,13.33
2022-10-30T06:26:56.479Z,13.35
2022-10-30T06:27:56.745Z,13.41
2022-10-30T06:28:56.368Z,13.41
2022-10-30T06:29:56.328Z,13.47
2022-10-30T06:30:56.284Z,13.47
2022-10-30T06:31:57.790Z,13.46
2022-10-30T06:32:56.631Z,13.50
2022-10-30T06:33:56.188Z,13.49
2022-10-30T06:34:56.156Z,13.44
2022-10-30T06:35:56.122Z,13.49
2022-10-30T06:36:56.161Z,13.42
2022-10-30T06:37:56.060Z,13.52
2022-10-30T06:38:56.092Z,13.53
2022-10-30T06:39:56.021Z,13.56
2022-10-30T06:40:55.968Z,13.54
2022-10-30T06:41:55.932Z,13.50
2022-10-30T06:42:56.100Z,13.52
2022-10-30T06:43:55.865Z,13.56
2022-10-30T06:44:55.915Z,13.57
2022-10-30T06:45:55.873Z,13.54
2022-10-30T06:46:55.775Z,13.59
2022-10-30T06:47:56.076Z,13.65
2022-10-30T06:48:55.711Z,13.68
2022-10-30T06:49:55.677Z,13.71
2022-10-30T06:50:55.714Z,13.65
2022-10-30T06:51:55.620Z,13.74
2022-10-30T06:52:55.645Z,13.78
2022-10-30T06:53:55.574Z,13.74
2022-10-30T06:54:55.529Z,13.78
2022-10-30T06:55:58.791Z,13.89
2022-10-30T06:56:55.535Z,13.87
2022-10-30T06:57:55.621Z,13.95
2022-10-30T06:58:55.396Z,13.90
2022-10-30T06:59:55.372Z,13.96
2022-10-30T07:00:55.340Z,13.97
2022-10-30T07:01:57.487Z,14.07
2022-10-30T07:02:55.609Z,14.04
2022-10-30T07:03:55.330Z,14.07
2022-10-30T07:04:55.206Z,14.08
2022-10-30T07:05:55.186Z,14.10
2022-10-30T07:06:55.147Z,14.08
2022-10-30T07:07:55.110Z,14.14
2022-10-30T07:08:55.088Z,14.17
2022-10-30T07:09:55.121Z,14.11
2022-10-30T07:10:55.037Z,14.07
2022-10-30T07:11:56.962Z,14.05
2022-10-30T07:12:55.076Z,14.10
2022-10-30T07:13:54.925Z,14.20
2022-10-30T07:14:54.896Z,14.23
2022-10-30T07:15:54.941Z,14.28
2022-10-30T07:16:54.832Z,14.36
2022-10-30T07:17:54.876Z,14.33
2022-10-30T07:18:54.774Z,14.33
2022-10-30T07:19:54.746Z,14.30
2022-10-30T07:20:54.772Z,14.40
2022-10-30T07:21:54.755Z,14.41
2022-10-30T07:22:54.648Z,14.50
2022-10-30T07:23:54.626Z,14.48
2022-10-30T07:24:54.589Z,14.43
2022-10-30T07:25:57.283Z,14.41
2022-10-30T07:26:54.526Z,14.43
2022-10-30T07:27:54.557Z,14.48
2022-10-30T07:28:54.471Z,14.59
2022-10-30T07:29:54.433Z,14.59
2022-10-30T07:30:54.408Z,14.68
2022-10-30T07:32:09.336Z,14.66
2022-10-30T07:32:54.341Z,14.77
2022-10-30T07:33:54.378Z,14.81
2022-10-30T07:34:54.279Z,14.82
2022-10-30T07:35:54.262Z,15.06
2022-10-30T07:36:54.218Z,15.06
2022-10-30T07:37:54.193Z,15.04
2022-10-30T07:38:54.154Z,15.21
2022-10-30T07:39:54.196Z,15.24
2022-10-30T07:40:54.097Z,15.29
2022-10-30T07:41:54.065Z,15.28
2022-10-30T07:42:54.033Z,15.24
2022-10-30T07:43:54.007Z,15.37
2022-10-30T07:44:53.980Z,15.37
2022-10-30T07:45:54.011Z,15.42
2022-10-30T07:46:53.947Z,15.49
2022-10-30T07:47:53.886Z,15.55
2022-10-30T07:48:53.931Z,15.61
2022-10-30T07:49:53.825Z,15.59
2022-10-30T07:50:53.798Z,15.68
2022-10-30T07:51:53.774Z,15.73
2022-10-30T07:52:53.736Z,15.70
2022-10-30T07:53:53.705Z,15.76
2022-10-30T07:54:53.741Z,15.77
2022-10-30T07:55:53.639Z,15.76
2022-10-30T07:56:53.610Z,15.73
2022-10-30T07:57:53.582Z,15.72
2022-10-30T07:58:53.552Z,15.80
2022-10-30T07:59:55.952Z,15.80
2022-10-30T08:00:53.562Z,15.83
2022-10-30T08:01:53.635Z,15.86
2022-10-30T08:02:53.512Z,15.80
2022-10-30T08:03:53.411Z,15.88
2022-10-30T08:04:53.379Z,15.94
2022-10-30T08:05:53.347Z,16.05
2022-10-30T08:06:53.400Z,16.12
2022-10-30T08:07:53.283Z,16.24
2022-10-30T08:08:53.257Z,16.38
2022-10-30T08:09:53.225Z,16.42
2022-10-30T08:10:53.195Z,16.46
2022-10-30T08:11:53.165Z,16.49
2022-10-30T08:12:53.198Z,16.51
2022-10-30T08:13:53.112Z,16.61
2022-10-30T08:14:53.080Z,16.74
2022-10-30T08:15:53.118Z,16.74
2022-10-30T08:16:53.023Z,16.83
2022-10-30T08:17:52.995Z,16.84
2022-10-30T08:18:52.965Z,16.96
2022-10-30T08:19:52.929Z,17.06
2022-10-30T08:20:52.926Z,17.11
2022-10-30T08:21:56.090Z,17.12
2022-10-30T08:22:52.910Z,17.15
2022-10-30T08:23:52.824Z,17.15
2022-10-30T08:24:52.786Z,17.12
2022-10-30T08:25:52.759Z,17.09
2022-10-30T08:26:53.530Z,17.08
2022-10-30T08:27:52.770Z,17.06
2022-10-30T08:28:52.666Z,17.20
2022-10-30T08:29:52.637Z,17.08
2022-10-30T08:30:52.611Z,17.11
2022-10-30T08:31:52.581Z,17.20
2022-10-30T08:32:52.554Z,17.27
2022-10-30T08:33:52.583Z,17.31
2022-10-30T08:34:52.499Z,17.38
2022-10-30T08:35:52.467Z,17.38
2022-10-30T08:36:52.441Z,17.46
2022-10-30T08:37:52.480Z,17.54
2022-10-30T08:38:52.382Z,17.57
2022-10-30T08:39:52.350Z,17.57
2022-10-30T08:40:52.328Z,17.65
2022-10-30T08:41:52.289Z,17.68
2022-10-30T08:42:52.264Z,17.70
2022-10-30T08:43:52.298Z,17.79
2022-10-30T08:44:52.210Z,17.85
2022-10-30T08:45:52.187Z,17.87
2022-10-30T08:46:53.932Z,17.90
2022-10-30T08:47:54.431Z,17.95
2022-10-30T08:48:52.091Z,18.08
2022-10-30T08:49:52.064Z,18.08
2022-10-30T08:50:52.067Z,18.07
2022-10-30T08:51:52.012Z,18.07
2022-10-30T08:52:53.896Z,18.05
2022-10-30T08:53:51.948Z,18.07
2022-10-30T08:54:52.933Z,18.10
2022-10-30T08:55:51.895Z,18.07
2022-10-30T08:56:51.864Z,18.07
2022-10-30T08:57:51.833Z,18.03
2022-10-30T08:58:51.872Z,17.98
2022-10-30T08:59:51.786Z,17.92
2022-10-30T09:00:53.123Z,17.98
2022-10-30T09:01:51.842Z,17.98
2022-10-30T09:02:51.693Z,17.97
2022-10-30T09:03:51.666Z,17.90
2022-10-30T09:04:51.780Z,17.85
2022-10-30T09:05:52.440Z,17.78
2022-10-30T09:06:51.573Z,17.76
2022-10-30T09:07:51.550Z,17.85
2022-10-30T09:08:51.521Z,17.80
2022-10-30T09:09:51.496Z,17.74
2022-10-30T09:10:51.531Z,17.85
2022-10-30T09:11:51.440Z,17.79
2022-10-30T09:12:51.433Z,17.80
2022-10-30T09:13:51.396Z,17.83
2022-10-30T09:14:51.437Z,17.86
2022-10-30T09:15:51.939Z,17.87
2022-10-30T09:16:51.366Z,17.95
2022-10-30T09:17:59.491Z,17.94
2022-10-30T09:18:51.237Z,17.92
2022-10-30T09:19:51.215Z,17.94
2022-10-30T09:20:51.211Z,17.94
2022-10-30T09:21:51.178Z,17.98
2022-10-30T09:22:51.722Z,17.98
2022-10-30T09:23:51.208Z,18.00
2022-10-30T09:24:51.177Z,18.13
2022-10-30T09:25:51.072Z,18.10
2022-10-30T09:26:51.006Z,18.18
2022-10-30T09:27:50.988Z,18.18
2022-10-30T09:28:51.018Z,18.18
2022-10-30T09:29:50.925Z,18.29
2022-10-30T09:30:50.894Z,18.23
2022-10-30T09:31:50.858Z,18.34
2022-10-30T09:32:54.813Z,18.29
2022-10-30T09:33:50.821Z,18.43
2022-10-30T09:34:51.191Z,18.40
2022-10-30T09:35:50.749Z,18.45
2022-10-30T09:36:50.731Z,18.53
2022-10-30T09:37:50.689Z,18.43
2022-10-30T09:38:50.662Z,18.50
2022-10-30T09:39:50.633Z,18.62
2022-10-30T09:40:50.668Z,18.62
2022-10-30T09:41:51.117Z,18.63
2022-10-30T09:42:50.549Z,18.70
2022-10-30T09:43:50.544Z,18.68
2022-10-30T09:45:08.114Z,18.62
2022-10-30T09:45:50.476Z,18.62
2022-10-30T09:46:50.521Z,18.70
2022-10-30T09:47:50.405Z,18.62
2022-10-30T09:48:50.379Z,18.80
2022-10-30T09:49:50.344Z,18.78
2022-10-30T09:50:50.977Z,18.77
2022-10-30T09:51:50.304Z,18.83
2022-10-30T09:52:50.330Z,18.90
2022-10-30T09:53:50.254Z,18.96
2022-10-30T09:54:50.208Z,18.92
2022-10-30T09:55:50.183Z,18.96
2022-10-30T09:56:50.149Z,19.00
2022-10-30T09:57:50.208Z,19.07
2022-10-30T09:58:50.152Z,19.08
2022-10-30T09:59:50.073Z,19.04
2022-10-30T10:00:50.074Z,19.08
2022-10-30T10:01:50.120Z,19.15
2022-10-30T10:02:50.047Z,19.21
2022-10-30T10:03:49.946Z,19.22
2022-10-30T10:04:49.993Z,19.27
2022-10-30T10:05:49.904Z,19.31
2022-10-30T10:06:49.862Z,19.41
2022-10-30T10:07:49.836Z,19.47
2022-10-30T10:08:49.823Z,19.33
2022-10-30T10:09:49.828Z,19.36
2022-10-30T10:10:49.831Z,19.34
2022-10-30T10:11:49.725Z,19.44
2022-10-30T10:12:49.692Z,19.52
2022-10-30T10:13:49.660Z,19.52
2022-10-30T10:14:49.635Z,19.55
2022-10-30T10:15:49.611Z,19.56
2022-10-30T10:16:49.648Z,19.67
2022-10-30T10:17:49.554Z,19.73
2022-10-30T10:18:49.520Z,19.73
2022-10-30T10:19:49.491Z,19.81
2022-10-30T10:20:50.103Z,19.85
2022-10-30T10:21:49.447Z,19.82
2022-10-30T10:22:49.471Z,19.85
2022-10-30T10:23:49.383Z,19.89
2022-10-30T10:24:49.361Z,19.99
2022-10-30T10:25:49.346Z,19.91
2022-10-30T10:26:49.995Z,19.88
2022-10-30T10:27:49.355Z,19.91
2022-10-30T10:28:49.246Z,19.95
2022-10-30T10:29:51.985Z,19.92
2022-10-30T10:30:49.186Z,20.07
2022-10-30T10:31:49.160Z,20.03
2022-10-30T10:32:49.127Z,20.04
2022-10-30T10:33:51.235Z,20.09
2022-10-30T10:34:49.075Z,20.09
2022-10-30T10:35:49.049Z,20.03
2022-10-30T10:36:49.012Z,20.06
2022-10-30T10:37:48.989Z,20.13
2022-10-30T10:38:48.957Z,20.14
2022-10-30T10:39:48.999Z,20.16
2022-10-30T10:40:48.899Z,20.21
2022-10-30T10:41:53.434Z,20.14
2022-10-30T10:42:48.850Z,20.28
2022-10-30T10:43:48.821Z,20.31
2022-10-30T10:44:48.799Z,20.31
2022-10-30T10:45:48.832Z,20.22
2022-10-30T10:46:48.742Z,20.26
2022-10-30T10:47:48.714Z,20.28
2022-10-30T10:48:48.690Z,20.40
2022-10-30T10:49:48.659Z,20.40
2022-10-30T10:50:48.627Z,20.36
2022-10-30T10:51:48.693Z,20.39
2022-10-30T10:52:48.572Z,20.43
2022-10-30T10:53:48.547Z,20.51
2022-10-30T10:54:48.511Z,20.60
2022-10-30T10:55:48.507Z,20.51
2022-10-30T10:56:48.469Z,20.50
2022-10-30T10:57:48.503Z,20.63
2022-10-30T10:58:48.411Z,20.62
2022-10-30T10:59:48.380Z,20.67
2022-10-30T11:00:48.367Z,20.63
2022-10-30T11:01:48.556Z,20.51
2022-10-30T11:02:48.369Z,20.67
2022-10-30T11:03:48.334Z,20.60
2022-10-30T11:04:48.247Z,20.66
2022-10-30T11:05:48.209Z,20.63
2022-10-30T11:06:48.181Z,20.66
2022-10-30T11:07:48.213Z,20.65
2022-10-30T11:08:48.132Z,20.62
2022-10-30T11:09:49.179Z,20.66
2022-10-30T11:10:48.100Z,20.63
2022-10-30T11:11:48.052Z,20.65
2022-10-30T11:12:48.077Z,20.63
2022-10-30T11:13:47.997Z,20.62
2022-10-30T11:14:47.968Z,20.70
2022-10-30T11:15:48.005Z,20.75
2022-10-30T11:16:47.911Z,20.84
2022-10-30T11:17:47.888Z,20.87
2022-10-30T11:18:47.861Z,20.93
2022-10-30T11:19:50.835Z,21.00
2022-10-30T11:20:47.803Z,20.93
2022-10-30T11:21:47.906Z,21.00
2022-10-30T11:22:47.871Z,20.87
2022-10-30T11:23:47.734Z,20.85
2022-10-30T11:24:47.720Z,20.93
2022-10-30T11:25:47.667Z,20.84
2022-10-30T11:26:47.635Z,20.82
2022-10-30T11:27:47.678Z,20.81
2022-10-30T11:28:47.581Z,20.85
2022-10-30T11:29:47.557Z,20.95
2022-10-30T11:30:47.541Z,20.97
2022-10-30T11:31:47.521Z,20.97
2022-10-30T11:32:47.497Z,20.95
2022-10-30T11:33:47.526Z,20.88
2022-10-30T11:34:47.416Z,20.93
2022-10-30T11:35:47.397Z,20.95
2022-10-30T11:36:47.369Z,21.11
2022-10-30T11:37:47.345Z,20.99
2022-10-30T11:38:47.318Z,21.03
2022-10-30T11:39:47.358Z,21.02
2022-10-30T11:40:47.298Z,21.03
2022-10-30T11:41:49.688Z,21.05
2022-10-30T11:42:47.346Z,21.05
2022-10-30T11:43:47.183Z,21.06
2022-10-30T11:44:47.146Z,21.09
2022-10-30T11:45:47.121Z,21.06
2022-10-30T11:46:47.102Z,21.20
2022-10-30T11:47:47.090Z,21.09
2022-10-30T11:48:47.099Z,21.09
2022-10-30T11:49:47.086Z,20.99
2022-10-30T11:50:47.010Z,21.02
2022-10-30T11:51:46.962Z,21.05
2022-10-30T11:52:46.944Z,21.00
2022-10-30T11:53:46.908Z,21.06
2022-10-30T11:54:46.891Z,21.05
2022-10-30T11:55:46.930Z,20.99
2022-10-30T11:56:46.832Z,21.03
2022-10-30T11:57:46.798Z,21.03
2022-10-30T11:58:46.829Z,21.02
2022-10-30T11:59:46.753Z,21.05
2022-10-30T12:00:46.724Z,21.17
2022-10-30T12:01:46.795Z,21.06
2022-10-30T12:02:46.780Z,21.11
2022-10-30T12:03:46.662Z,21.14
2022-10-30T12:04:46.623Z,21.20
2022-10-30T12:05:50.248Z,21.21
2022-10-30T12:06:46.574Z,21.20
2022-10-30T12:07:46.597Z,21.21
2022-10-30T12:08:46.502Z,21.22
2022-10-30T12:09:46.477Z,21.32
2022-10-30T12:10:46.444Z,21.30
2022-10-30T12:11:46.440Z,21.22
2022-10-30T12:12:47.041Z,21.25
2022-10-30T12:13:46.436Z,21.27
2022-10-30T12:14:46.339Z,21.35
2022-10-30T12:15:46.318Z,21.42
2022-10-30T12:16:46.284Z,21.50
2022-10-30T12:17:46.257Z,21.46
2022-10-30T12:18:46.245Z,21.45
2022-10-30T12:19:46.262Z,21.46
2022-10-30T12:20:46.179Z,21.48
2022-10-30T12:21:46.152Z,21.43
2022-10-30T12:22:46.121Z,21.48
2022-10-30T12:23:46.163Z,21.45
2022-10-30T12:24:46.091Z,21.51
2022-10-30T12:25:46.041Z,21.43
2022-10-30T12:26:46.020Z,21.42
2022-10-30T12:27:45.990Z,21.45
2022-10-30T12:28:46.526Z,21.51
2022-10-30T12:30:07.255Z,21.43
2022-10-30T12:30:45.968Z,21.42
2022-10-30T12:31:45.960Z,21.51
2022-10-30T12:32:45.857Z,21.46
2022-10-30T12:33:45.831Z,21.50
2022-10-30T12:34:45.806Z,21.54
2022-10-30T12:35:45.833Z,21.64
2022-10-30T12:36:49.033Z,21.57
2022-10-30T12:37:47.729Z,21.50
2022-10-30T12:38:45.697Z,21.52
2022-10-30T12:39:45.667Z,21.58
2022-10-30T12:40:50.060Z,21.50
2022-10-30T12:41:46.149Z,21.43
2022-10-30T12:42:45.602Z,21.50
2022-10-30T12:43:45.615Z,21.35
2022-10-30T12:44:46.043Z,21.36
2022-10-30T12:45:45.583Z,21.45
2022-10-30T12:46:45.484Z,21.35
2022-10-30T12:47:45.456Z,21.50
2022-10-30T12:48:45.495Z,21.51
2022-10-30T12:49:45.461Z,21.52
2022-10-30T12:50:45.372Z,21.57
2022-10-30T12:51:45.347Z,21.55